sensor_id;sensor_type;location;lat;lon;timestamp;P1;durP1;ratioP1;P2;durP2;ratioP2
7821;SDS011;3956;50.558;9.678;2022-12-18T00:00:11;31.83;;;15.23;;
7821;SDS011;3956;50.558;9.678;2022-12-18T00:02:41;34.33;;;15.95;;
7821;SDS011;3956;50.558;9.678;2022-12-18T00:05:10;35.35;;;13.68;;
7821;SDS011;3956;50.558;9.678;2022-12-18T00:07:38;31.05;;;14.20;;
7821;SDS011;3956;50.558;9.678;2022-12-18T00:10:07;30.05;;;15.27;;
7821;SDS011;3956;50.558;9.678;2022-12-18T00:12:35;28.23;;;13.35;;
7821;SDS011;3956;50.558;9.678;2022-12-18T00:15:04;27.65;;;13.82;;
7821;SDS011;3956;50.558;9.678;2022-12-18T00:17:36;29.25;;;14.05;;
7821;SDS011;3956;50.558;9.678;2022-12-18T00:20:09;40.15;;;18.58;;
7821;SDS011;3956;50.558;9.678;2022-12-18T00:22:38;38.42;;;17.05;;
7821;SDS011;3956;50.558;9.678;2022-12-18T00:25:06;41.30;;;17.63;;
7821;SDS011;3956;50.558;9.678;2022-12-18T00:27:35;40.25;;;18.33;;
7821;SDS011;3956;50.558;9.678;2022-12-18T00:30:04;39.90;;;17.88;;
7821;SDS011;3956;50.558;9.678;2022-12-18T00:32:33;35.38;;;16.95;;
7821;SDS011;3956;50.558;9.678;2022-12-18T00:35:01;46.33;;;18.02;;
7821;SDS011;3956;50.558;9.678;2022-12-18T00:37:31;33.00;;;14.88;;
7821;SDS011;3956;50.558;9.678;2022-12-18T00:40:01;34.25;;;13.70;;
7821;SDS011;3956;50.558;9.678;2022-12-18T00:42:29;28.17;;;14.90;;
7821;SDS011;3956;50.558;9.678;2022-12-18T00:45:11;34.85;;;15.52;;
7821;SDS011;3956;50.558;9.678;2022-12-18T00:47:39;32.95;;;16.92;;
7821;SDS011;3956;50.558;9.678;2022-12-18T00:50:09;36.33;;;17.30;;
7821;SDS011;3956;50.558;9.678;2022-12-18T00:52:38;33.05;;;17.13;;
7821;SDS011;3956;50.558;9.678;2022-12-18T00:55:07;38.22;;;18.48;;
7821;SDS011;3956;50.558;9.678;2022-12-18T00:57:35;32.37;;;15.10;;
7821;SDS011;3956;50.558;9.678;2022-12-18T01:00:07;34.60;;;16.55;;
7821;SDS011;3956;50.558;9.678;2022-12-18T01:02:37;28.23;;;13.77;;
7821;SDS011;3956;50.558;9.678;2022-12-18T01:05:06;32.28;;;13.57;;
7821;SDS011;3956;50.558;9.678;2022-12-18T01:07:35;37.33;;;15.80;;
7821;SDS011;3956;50.558;9.678;2022-12-18T01:10:06;28.52;;;14.35;;
7821;SDS011;3956;50.558;9.678;2022-12-18T01:12:35;32.20;;;15.50;;
7821;SDS011;3956;50.558;9.678;2022-12-18T01:15:04;29.37;;;15.40;;
7821;SDS011;3956;50.558;9.678;2022-12-18T01:17:33;32.20;;;14.43;;
7821;SDS011;3956;50.558;9.678;2022-12-18T01:20:02;32.28;;;14.60;;
7821;SDS011;3956;50.558;9.678;2022-12-18T01:22:34;29.38;;;14.20;;
7821;SDS011;3956;50.558;9.678;2022-12-18T01:25:02;26.67;;;14.13;;
7821;SDS011;3956;50.558;9.678;2022-12-18T01:27:34;29.92;;;14.77;;
7821;SDS011;3956;50.558;9.678;2022-12-18T01:30:02;28.85;;;14.32;;
7821;SDS011;3956;50.558;9.678;2022-12-18T01:32:31;32.10;;;15.10;;
7821;SDS011;3956;50.558;9.678;2022-12-18T01:35:00;31.60;;;15.30;;
7821;SDS011;3956;50.558;9.678;2022-12-18T01:37:29;31.00;;;13.65;;
7821;SDS011;3956;50.558;9.678;2022-12-18T01:39:57;28.02;;;13.80;;
7821;SDS011;3956;50.558;9.678;2022-12-18T01:42:25;30.40;;;14.70;;
7821;SDS011;3956;50.558;9.678;2022-12-18T01:44:56;28.00;;;13.38;;
7821;SDS011;3956;50.558;9.678;2022-12-18T01:47:29;24.35;;;13.02;;
7821;SDS011;3956;50.558;9.678;2022-12-18T01:50:01;25.95;;;13.20;;
7821;SDS011;3956;50.558;9.678;2022-12-18T01:52:32;28.90;;;12.10;;
7821;SDS011;3956;50.558;9.678;2022-12-18T01:55:02;26.38;;;13.73;;
7821;SDS011;3956;50.558;9.678;2022-12-18T01:57:32;32.22;;;14.90;;
7821;SDS011;3956;50.558;9.678;2022-12-18T02:00:05;26.50;;;14.05;;
7821;SDS011;3956;50.558;9.678;2022-12-18T02:02:37;31.05;;;15.48;;
7821;SDS011;3956;50.558;9.678;2022-12-18T02:05:07;29.45;;;12.75;;
7821;SDS011;3956;50.558;9.678;2022-12-18T02:07:40;29.48;;;13.65;;
7821;SDS011;3956;50.558;9.678;2022-12-18T02:10:15;32.22;;;14.50;;
7821;SDS011;3956;50.558;9.678;2022-12-18T02:12:52;27.13;;;14.70;;
7821;SDS011;3956;50.558;9.678;2022-12-18T02:15:27;24.67;;;14.05;;
7821;SDS011;3956;50.558;9.678;2022-12-18T02:18:03;24.98;;;13.57;;
7821;SDS011;3956;50.558;9.678;2022-12-18T02:20:39;25.90;;;13.73;;
7821;SDS011;3956;50.558;9.678;2022-12-18T02:23:13;27.63;;;13.18;;
7821;SDS011;3956;50.558;9.678;2022-12-18T02:25:54;29.20;;;13.38;;
7821;SDS011;3956;50.558;9.678;2022-12-18T02:28:30;28.02;;;11.98;;
7821;SDS011;3956;50.558;9.678;2022-12-18T02:31:01;26.60;;;12.02;;
7821;SDS011;3956;50.558;9.678;2022-12-18T02:33:32;22.45;;;12.30;;
7821;SDS011;3956;50.558;9.678;2022-12-18T02:36:04;21.65;;;12.23;;
7821;SDS011;3956;50.558;9.678;2022-12-18T02:38:35;24.33;;;11.43;;
7821;SDS011;3956;50.558;9.678;2022-12-18T02:41:05;24.38;;;10.98;;
7821;SDS011;3956;50.558;9.678;2022-12-18T02:43:34;21.02;;;9.93;;
7821;SDS011;3956;50.558;9.678;2022-12-18T02:49:11;20.95;;;10.80;;
7821;SDS011;3956;50.558;9.678;2022-12-18T02:51:50;22.92;;;9.57;;
7821;SDS011;3956;50.558;9.678;2022-12-18T02:54:33;20.73;;;9.95;;
7821;SDS011;3956;50.558;9.678;2022-12-18T02:57:13;18.08;;;9.23;;
7821;SDS011;3956;50.558;9.678;2022-12-18T02:59:53;17.45;;;9.00;;
7821;SDS011;3956;50.558;9.678;2022-12-18T03:02:26;21.67;;;11.02;;
7821;SDS011;3956;50.558;9.678;2022-12-18T03:05:03;22.77;;;11.15;;
7821;SDS011;3956;50.558;9.678;2022-12-18T03:07:38;18.92;;;10.10;;
7821;SDS011;3956;50.558;9.678;2022-12-18T03:10:14;18.50;;;10.45;;
7821;SDS011;3956;50.558;9.678;2022-12-18T03:12:49;21.88;;;9.23;;
7821;SDS011;3956;50.558;9.678;2022-12-18T03:15:22;22.75;;;10.52;;
7821;SDS011;3956;50.558;9.678;2022-12-18T03:17:55;21.10;;;10.77;;
7821;SDS011;3956;50.558;9.678;2022-12-18T03:20:27;20.55;;;10.20;;
7821;SDS011;3956;50.558;9.678;2022-12-18T03:22:59;21.50;;;10.90;;
7821;SDS011;3956;50.558;9.678;2022-12-18T03:25:34;22.52;;;11.75;;
7821;SDS011;3956;50.558;9.678;2022-12-18T03:28:08;22.30;;;10.30;;
7821;SDS011;3956;50.558;9.678;2022-12-18T03:30:40;23.63;;;11.27;;
7821;SDS011;3956;50.558;9.678;2022-12-18T03:33:12;24.77;;;11.52;;
7821;SDS011;3956;50.558;9.678;2022-12-18T03:35:46;20.60;;;11.43;;
7821;SDS011;3956;50.558;9.678;2022-12-18T03:38:14;23.02;;;11.45;;
7821;SDS011;3956;50.558;9.678;2022-12-18T03:40:45;26.17;;;10.88;;
7821;SDS011;3956;50.558;9.678;2022-12-18T03:43:29;21.95;;;10.45;;
7821;SDS011;3956;50.558;9.678;2022-12-18T03:46:06;23.23;;;11.35;;
7821;SDS011;3956;50.558;9.678;2022-12-18T03:48:41;26.50;;;10.77;;
7821;SDS011;3956;50.558;9.678;2022-12-18T03:51:17;19.35;;;9.80;;
7821;SDS011;3956;50.558;9.678;2022-12-18T03:53:52;23.58;;;10.50;;
7821;SDS011;3956;50.558;9.678;2022-12-18T03:56:25;22.52;;;10.25;;
7821;SDS011;3956;50.558;9.678;2022-12-18T03:58:58;24.20;;;10.35;;
7821;SDS011;3956;50.558;9.678;2022-12-18T04:01:30;25.50;;;10.70;;
7821;SDS011;3956;50.558;9.678;2022-12-18T04:04:01;20.65;;;10.02;;
7821;SDS011;3956;50.558;9.678;2022-12-18T04:06:31;17.25;;;9.80;;
7821;SDS011;3956;50.558;9.678;2022-12-18T04:09:03;19.75;;;9.65;;
7821;SDS011;3956;50.558;9.678;2022-12-18T04:11:32;25.67;;;10.25;;
7821;SDS011;3956;50.558;9.678;2022-12-18T04:14:02;21.35;;;10.82;;
7821;SDS011;3956;50.558;9.678;2022-12-18T04:16:32;19.88;;;9.98;;
7821;SDS011;3956;50.558;9.678;2022-12-18T04:19:01;24.65;;;11.40;;
7821;SDS011;3956;50.558;9.678;2022-12-18T04:21:29;25.02;;;11.90;;
7821;SDS011;3956;50.558;9.678;2022-12-18T04:23:58;22.90;;;9.75;;
7821;SDS011;3956;50.558;9.678;2022-12-18T04:26:26;22.90;;;10.57;;
7821;SDS011;3956;50.558;9.678;2022-12-18T04:28:54;23.02;;;10.23;;
7821;SDS011;3956;50.558;9.678;2022-12-18T04:31:24;21.13;;;10.02;;
7821;SDS011;3956;50.558;9.678;2022-12-18T04:33:53;21.13;;;10.90;;
7821;SDS011;3956;50.558;9.678;2022-12-18T04:36:21;19.38;;;10.63;;
7821;SDS011;3956;50.558;9.678;2022-12-18T04:38:52;18.83;;;9.75;;
7821;SDS011;3956;50.558;9.678;2022-12-18T04:41:20;21.42;;;10.10;;
7821;SDS011;3956;50.558;9.678;2022-12-18T04:43:49;21.05;;;11.10;;
7821;SDS011;3956;50.558;9.678;2022-12-18T04:46:17;21.40;;;9.35;;
7821;SDS011;3956;50.558;9.678;2022-12-18T04:48:47;22.17;;;9.98;;
7821;SDS011;3956;50.558;9.678;2022-12-18T04:51:15;22.80;;;10.88;;
7821;SDS011;3956;50.558;9.678;2022-12-18T04:53:51;23.23;;;10.63;;
7821;SDS011;3956;50.558;9.678;2022-12-18T04:56:19;20.33;;;10.73;;
7821;SDS011;3956;50.558;9.678;2022-12-18T04:58:48;19.23;;;9.60;;
7821;SDS011;3956;50.558;9.678;2022-12-18T05:01:17;23.48;;;8.20;;
7821;SDS011;3956;50.558;9.678;2022-12-18T05:03:47;21.60;;;10.73;;
7821;SDS011;3956;50.558;9.678;2022-12-18T05:06:16;25.15;;;10.75;;
7821;SDS011;3956;50.558;9.678;2022-12-18T05:08:44;21.25;;;10.38;;
7821;SDS011;3956;50.558;9.678;2022-12-18T05:11:13;23.45;;;11.43;;
7821;SDS011;3956;50.558;9.678;2022-12-18T05:13:43;25.17;;;10.90;;
7821;SDS011;3956;50.558;9.678;2022-12-18T05:16:12;19.30;;;9.48;;
7821;SDS011;3956;50.558;9.678;2022-12-18T05:18:41;18.13;;;9.25;;
7821;SDS011;3956;50.558;9.678;2022-12-18T05:21:11;20.33;;;9.93;;
7821;SDS011;3956;50.558;9.678;2022-12-18T05:23:40;25.17;;;9.70;;
7821;SDS011;3956;50.558;9.678;2022-12-18T05:26:09;21.23;;;9.43;;
7821;SDS011;3956;50.558;9.678;2022-12-18T05:28:42;22.17;;;10.95;;
7821;SDS011;3956;50.558;9.678;2022-12-18T05:31:11;22.65;;;9.50;;
7821;SDS011;3956;50.558;9.678;2022-12-18T05:33:39;21.77;;;10.50;;
7821;SDS011;3956;50.558;9.678;2022-12-18T05:36:09;38.83;;;16.20;;
7821;SDS011;3956;50.558;9.678;2022-12-18T05:38:39;22.50;;;11.05;;
7821;SDS011;3956;50.558;9.678;2022-12-18T05:41:08;27.92;;;11.88;;
7821;SDS011;3956;50.558;9.678;2022-12-18T05:43:38;27.98;;;12.02;;
7821;SDS011;3956;50.558;9.678;2022-12-18T05:46:08;24.55;;;10.48;;
7821;SDS011;3956;50.558;9.678;2022-12-18T05:48:39;26.13;;;9.55;;
7821;SDS011;3956;50.558;9.678;2022-12-18T05:51:10;36.03;;;13.20;;
7821;SDS011;3956;50.558;9.678;2022-12-18T05:53:42;33.45;;;12.82;;
7821;SDS011;3956;50.558;9.678;2022-12-18T05:56:11;30.58;;;11.60;;
7821;SDS011;3956;50.558;9.678;2022-12-18T05:58:42;25.50;;;12.45;;
7821;SDS011;3956;50.558;9.678;2022-12-18T06:01:12;34.45;;;13.20;;
7821;SDS011;3956;50.558;9.678;2022-12-18T06:03:42;26.20;;;12.50;;
7821;SDS011;3956;50.558;9.678;2022-12-18T06:06:16;31.55;;;14.23;;
7821;SDS011;3956;50.558;9.678;2022-12-18T06:08:46;25.02;;;12.50;;
7821;SDS011;3956;50.558;9.678;2022-12-18T06:11:16;26.88;;;12.35;;
7821;SDS011;3956;50.558;9.678;2022-12-18T06:13:46;31.67;;;12.75;;
7821;SDS011;3956;50.558;9.678;2022-12-18T06:16:23;26.48;;;11.70;;
7821;SDS011;3956;50.558;9.678;2022-12-18T06:18:52;31.85;;;13.45;;
7821;SDS011;3956;50.558;9.678;2022-12-18T06:21:21;23.85;;;10.75;;
7821;SDS011;3956;50.558;9.678;2022-12-18T06:23:50;20.52;;;10.25;;
7821;SDS011;3956;50.558;9.678;2022-12-18T06:26:18;24.42;;;10.25;;
7821;SDS011;3956;50.558;9.678;2022-12-18T06:28:53;27.08;;;11.75;;
7821;SDS011;3956;50.558;9.678;2022-12-18T06:31:22;21.95;;;10.88;;
7821;SDS011;3956;50.558;9.678;2022-12-18T06:33:50;20.20;;;9.85;;
7821;SDS011;3956;50.558;9.678;2022-12-18T06:36:18;22.52;;;9.80;;
7821;SDS011;3956;50.558;9.678;2022-12-18T06:38:48;20.58;;;8.82;;
7821;SDS011;3956;50.558;9.678;2022-12-18T06:41:17;21.17;;;10.23;;
7821;SDS011;3956;50.558;9.678;2022-12-18T06:43:47;25.63;;;11.43;;
7821;SDS011;3956;50.558;9.678;2022-12-18T06:46:15;21.83;;;10.63;;
7821;SDS011;3956;50.558;9.678;2022-12-18T06:48:46;21.33;;;10.32;;
7821;SDS011;3956;50.558;9.678;2022-12-18T06:51:16;24.08;;;10.85;;
7821;SDS011;3956;50.558;9.678;2022-12-18T06:53:45;23.05;;;10.40;;
7821;SDS011;3956;50.558;9.678;2022-12-18T06:56:15;19.15;;;9.38;;
7821;SDS011;3956;50.558;9.678;2022-12-18T06:58:43;23.38;;;11.75;;
7821;SDS011;3956;50.558;9.678;2022-12-18T07:01:12;23.45;;;10.60;;
7821;SDS011;3956;50.558;9.678;2022-12-18T07:03:41;27.50;;;11.02;;
7821;SDS011;3956;50.558;9.678;2022-12-18T07:06:14;33.22;;;12.10;;
7821;SDS011;3956;50.558;9.678;2022-12-18T07:08:43;25.17;;;10.77;;
7821;SDS011;3956;50.558;9.678;2022-12-18T07:11:12;23.70;;;11.43;;
7821;SDS011;3956;50.558;9.678;2022-12-18T07:13:42;27.35;;;12.13;;
7821;SDS011;3956;50.558;9.678;2022-12-18T07:16:11;28.40;;;11.13;;
7821;SDS011;3956;50.558;9.678;2022-12-18T07:18:49;24.40;;;11.45;;
7821;SDS011;3956;50.558;9.678;2022-12-18T07:21:18;25.35;;;10.27;;
7821;SDS011;3956;50.558;9.678;2022-12-18T07:23:47;26.23;;;10.93;;
7821;SDS011;3956;50.558;9.678;2022-12-18T07:26:16;23.52;;;10.90;;
7821;SDS011;3956;50.558;9.678;2022-12-18T07:28:47;27.70;;;11.45;;
7821;SDS011;3956;50.558;9.678;2022-12-18T07:31:16;33.00;;;13.95;;
7821;SDS011;3956;50.558;9.678;2022-12-18T07:33:47;34.65;;;13.38;;
7821;SDS011;3956;50.558;9.678;2022-12-18T07:36:16;29.65;;;12.52;;
7821;SDS011;3956;50.558;9.678;2022-12-18T07:38:46;33.88;;;14.50;;
7821;SDS011;3956;50.558;9.678;2022-12-18T07:41:15;34.55;;;14.07;;
7821;SDS011;3956;50.558;9.678;2022-12-18T07:43:45;33.05;;;13.02;;
7821;SDS011;3956;50.558;9.678;2022-12-18T07:46:15;28.60;;;13.00;;
7821;SDS011;3956;50.558;9.678;2022-12-18T07:48:43;26.55;;;11.13;;
7821;SDS011;3956;50.558;9.678;2022-12-18T07:51:15;34.55;;;14.02;;
7821;SDS011;3956;50.558;9.678;2022-12-18T07:53:45;28.42;;;13.45;;
7821;SDS011;3956;50.558;9.678;2022-12-18T07:56:18;39.05;;;14.73;;
7821;SDS011;3956;50.558;9.678;2022-12-18T07:58:58;30.75;;;13.55;;
7821;SDS011;3956;50.558;9.678;2022-12-18T08:01:29;26.10;;;11.50;;
7821;SDS011;3956;50.558;9.678;2022-12-18T08:03:57;28.70;;;11.93;;
7821;SDS011;3956;50.558;9.678;2022-12-18T08:06:26;31.92;;;12.95;;
7821;SDS011;3956;50.558;9.678;2022-12-18T08:08:55;28.70;;;11.82;;
7821;SDS011;3956;50.558;9.678;2022-12-18T08:11:24;23.30;;;10.40;;
7821;SDS011;3956;50.558;9.678;2022-12-18T08:13:54;25.83;;;13.43;;
7821;SDS011;3956;50.558;9.678;2022-12-18T08:16:24;34.05;;;14.02;;
7821;SDS011;3956;50.558;9.678;2022-12-18T08:18:53;29.23;;;13.13;;
7821;SDS011;3956;50.558;9.678;2022-12-18T08:21:22;31.05;;;14.98;;
7821;SDS011;3956;50.558;9.678;2022-12-18T08:23:53;31.33;;;12.48;;
7821;SDS011;3956;50.558;9.678;2022-12-18T08:26:23;25.52;;;11.23;;
7821;SDS011;3956;50.558;9.678;2022-12-18T08:28:53;23.98;;;11.60;;
7821;SDS011;3956;50.558;9.678;2022-12-18T08:31:24;31.23;;;12.82;;
7821;SDS011;3956;50.558;9.678;2022-12-18T08:33:53;25.38;;;12.68;;
7821;SDS011;3956;50.558;9.678;2022-12-18T08:36:22;28.08;;;13.73;;
7821;SDS011;3956;50.558;9.678;2022-12-18T08:38:52;26.17;;;12.57;;
7821;SDS011;3956;50.558;9.678;2022-12-18T08:41:21;22.75;;;11.48;;
7821;SDS011;3956;50.558;9.678;2022-12-18T08:43:49;32.10;;;13.80;;
7821;SDS011;3956;50.558;9.678;2022-12-18T08:46:37;23.27;;;10.35;;
7821;SDS011;3956;50.558;9.678;2022-12-18T08:49:08;29.70;;;13.60;;
7821;SDS011;3956;50.558;9.678;2022-12-18T08:51:37;29.35;;;14.65;;
7821;SDS011;3956;50.558;9.678;2022-12-18T08:54:06;28.10;;;13.48;;
7821;SDS011;3956;50.558;9.678;2022-12-18T08:56:34;26.83;;;12.32;;
7821;SDS011;3956;50.558;9.678;2022-12-18T08:59:03;33.92;;;14.68;;
7821;SDS011;3956;50.558;9.678;2022-12-18T09:01:31;33.75;;;15.95;;
7821;SDS011;3956;50.558;9.678;2022-12-18T09:04:02;34.15;;;14.63;;
7821;SDS011;3956;50.558;9.678;2022-12-18T09:06:32;29.05;;;14.02;;
7821;SDS011;3956;50.558;9.678;2022-12-18T09:09:02;29.20;;;13.73;;
7821;SDS011;3956;50.558;9.678;2022-12-18T09:11:31;32.13;;;16.10;;
7821;SDS011;3956;50.558;9.678;2022-12-18T09:14:01;33.67;;;16.50;;
7821;SDS011;3956;50.558;9.678;2022-12-18T09:16:30;30.77;;;16.23;;
7821;SDS011;3956;50.558;9.678;2022-12-18T09:19:03;37.08;;;16.00;;
7821;SDS011;3956;50.558;9.678;2022-12-18T09:21:32;35.85;;;16.85;;
7821;SDS011;3956;50.558;9.678;2022-12-18T09:24:11;39.00;;;17.58;;
7821;SDS011;3956;50.558;9.678;2022-12-18T09:26:41;34.17;;;16.33;;
7821;SDS011;3956;50.558;9.678;2022-12-18T09:29:13;38.22;;;16.17;;
7821;SDS011;3956;50.558;9.678;2022-12-18T09:31:44;35.20;;;14.80;;
7821;SDS011;3956;50.558;9.678;2022-12-18T09:34:14;34.25;;;17.63;;
7821;SDS011;3956;50.558;9.678;2022-12-18T09:36:42;39.53;;;18.58;;
7821;SDS011;3956;50.558;9.678;2022-12-18T09:39:12;40.72;;;17.38;;
7821;SDS011;3956;50.558;9.678;2022-12-18T09:41:44;36.65;;;16.73;;
7821;SDS011;3956;50.558;9.678;2022-12-18T09:44:18;36.33;;;17.55;;
7821;SDS011;3956;50.558;9.678;2022-12-18T09:46:52;35.55;;;16.42;;
7821;SDS011;3956;50.558;9.678;2022-12-18T09:49:26;49.47;;;23.70;;
7821;SDS011;3956;50.558;9.678;2022-12-18T09:51:59;34.45;;;15.55;;
7821;SDS011;3956;50.558;9.678;2022-12-18T09:54:33;39.10;;;17.80;;
7821;SDS011;3956;50.558;9.678;2022-12-18T09:57:05;35.90;;;17.88;;
7821;SDS011;3956;50.558;9.678;2022-12-18T09:59:39;35.55;;;18.05;;
7821;SDS011;3956;50.558;9.678;2022-12-18T10:02:13;43.13;;;19.20;;
7821;SDS011;3956;50.558;9.678;2022-12-18T10:04:45;35.40;;;16.00;;
7821;SDS011;3956;50.558;9.678;2022-12-18T10:07:21;33.20;;;17.20;;
7821;SDS011;3956;50.558;9.678;2022-12-18T10:09:58;32.45;;;16.08;;
7821;SDS011;3956;50.558;9.678;2022-12-18T10:12:36;31.27;;;15.63;;
7821;SDS011;3956;50.558;9.678;2022-12-18T10:15:14;32.38;;;14.52;;
7821;SDS011;3956;50.558;9.678;2022-12-18T10:17:48;26.50;;;14.10;;
7821;SDS011;3956;50.558;9.678;2022-12-18T10:20:27;32.85;;;15.35;;
7821;SDS011;3956;50.558;9.678;2022-12-18T10:23:00;36.13;;;15.07;;
7821;SDS011;3956;50.558;9.678;2022-12-18T10:25:32;33.67;;;15.40;;
7821;SDS011;3956;50.558;9.678;2022-12-18T10:28:07;29.95;;;14.85;;
7821;SDS011;3956;50.558;9.678;2022-12-18T10:30:38;32.97;;;16.42;;
7821;SDS011;3956;50.558;9.678;2022-12-18T10:33:09;29.38;;;15.68;;
7821;SDS011;3956;50.558;9.678;2022-12-18T10:35:43;34.20;;;15.67;;
7821;SDS011;3956;50.558;9.678;2022-12-18T10:38:22;29.10;;;15.83;;
7821;SDS011;3956;50.558;9.678;2022-12-18T10:40:53;26.93;;;15.53;;
7821;SDS011;3956;50.558;9.678;2022-12-18T10:43:24;31.27;;;16.20;;
7821;SDS011;3956;50.558;9.678;2022-12-18T10:46:01;32.83;;;16.43;;
7821;SDS011;3956;50.558;9.678;2022-12-18T10:48:47;28.30;;;14.50;;
7821;SDS011;3956;50.558;9.678;2022-12-18T10:51:21;32.80;;;16.47;;
7821;SDS011;3956;50.558;9.678;2022-12-18T10:53:57;30.33;;;16.07;;
7821;SDS011;3956;50.558;9.678;2022-12-18T10:56:28;31.23;;;16.37;;
7821;SDS011;3956;50.558;9.678;2022-12-18T10:58:59;30.73;;;15.37;;
7821;SDS011;3956;50.558;9.678;2022-12-18T11:01:33;34.37;;;17.03;;
7821;SDS011;3956;50.558;9.678;2022-12-18T11:04:16;36.00;;;16.90;;
7821;SDS011;3956;50.558;9.678;2022-12-18T11:06:58;33.67;;;18.00;;
7821;SDS011;3956;50.558;9.678;2022-12-18T11:09:28;30.73;;;15.83;;
7821;SDS011;3956;50.558;9.678;2022-12-18T11:11:59;40.17;;;19.87;;
7821;SDS011;3956;50.558;9.678;2022-12-18T11:14:29;33.13;;;17.53;;
7821;SDS011;3956;50.558;9.678;2022-12-18T11:17:01;35.53;;;17.77;;
7821;SDS011;3956;50.558;9.678;2022-12-18T11:19:52;34.27;;;17.23;;
7821;SDS011;3956;50.558;9.678;2022-12-18T11:22:26;35.23;;;18.77;;
7821;SDS011;3956;50.558;9.678;2022-12-18T11:24:56;38.87;;;18.40;;
7821;SDS011;3956;50.558;9.678;2022-12-18T11:27:51;36.87;;;17.53;;
7821;SDS011;3956;50.558;9.678;2022-12-18T11:30:24;29.90;;;17.20;;
7821;SDS011;3956;50.558;9.678;2022-12-18T11:32:55;28.20;;;15.73;;
7821;SDS011;3956;50.558;9.678;2022-12-18T11:35:33;25.03;;;15.67;;
7821;SDS011;3956;50.558;9.678;2022-12-18T11:38:12;30.17;;;15.87;;
7821;SDS011;3956;50.558;9.678;2022-12-18T11:40:50;28.47;;;15.23;;
7821;SDS011;3956;50.558;9.678;2022-12-18T11:43:26;32.33;;;17.10;;
7821;SDS011;3956;50.558;9.678;2022-12-18T11:45:59;30.20;;;16.97;;
7821;SDS011;3956;50.558;9.678;2022-12-18T11:48:30;33.67;;;18.53;;
7821;SDS011;3956;50.558;9.678;2022-12-18T11:51:02;33.23;;;17.23;;
7821;SDS011;3956;50.558;9.678;2022-12-18T11:53:38;37.63;;;19.00;;
7821;SDS011;3956;50.558;9.678;2022-12-18T11:56:12;35.87;;;18.70;;
7821;SDS011;3956;50.558;9.678;2022-12-18T11:58:57;33.33;;;17.57;;
7821;SDS011;3956;50.558;9.678;2022-12-18T12:01:35;31.17;;;16.60;;
7821;SDS011;3956;50.558;9.678;2022-12-18T12:07:27;29.97;;;16.83;;
7821;SDS011;3956;50.558;9.678;2022-12-18T12:10:08;31.10;;;16.30;;
7821;SDS011;3956;50.558;9.678;2022-12-18T12:12:51;32.63;;;18.80;;
7821;SDS011;3956;50.558;9.678;2022-12-18T12:15:33;30.90;;;17.17;;
7821;SDS011;3956;50.558;9.678;2022-12-18T12:18:13;34.90;;;18.00;;
7821;SDS011;3956;50.558;9.678;2022-12-18T12:20:53;31.13;;;16.97;;
7821;SDS011;3956;50.558;9.678;2022-12-18T12:23:32;30.50;;;16.50;;
7821;SDS011;3956;50.558;9.678;2022-12-18T12:26:11;30.67;;;18.07;;
7821;SDS011;3956;50.558;9.678;2022-12-18T12:28:52;30.93;;;17.90;;
7821;SDS011;3956;50.558;9.678;2022-12-18T12:31:35;32.47;;;17.80;;
7821;SDS011;3956;50.558;9.678;2022-12-18T12:34:21;32.90;;;17.93;;
7821;SDS011;3956;50.558;9.678;2022-12-18T12:36:58;27.97;;;16.63;;
7821;SDS011;3956;50.558;9.678;2022-12-18T12:39:37;34.40;;;18.03;;
7821;SDS011;3956;50.558;9.678;2022-12-18T12:42:10;32.47;;;17.60;;
7821;SDS011;3956;50.558;9.678;2022-12-18T12:45:04;34.47;;;18.47;;
7821;SDS011;3956;50.558;9.678;2022-12-18T12:47:35;32.00;;;18.53;;
7821;SDS011;3956;50.558;9.678;2022-12-18T12:50:12;33.43;;;17.33;;
7821;SDS011;3956;50.558;9.678;2022-12-18T12:52:45;32.40;;;19.00;;
7821;SDS011;3956;50.558;9.678;2022-12-18T12:55:17;31.73;;;17.67;;
7821;SDS011;3956;50.558;9.678;2022-12-18T12:57:54;31.80;;;18.10;;
7821;SDS011;3956;50.558;9.678;2022-12-18T13:00:28;30.03;;;17.53;;
7821;SDS011;3956;50.558;9.678;2022-12-18T13:03:04;27.73;;;17.77;;
7821;SDS011;3956;50.558;9.678;2022-12-18T13:05:41;37.13;;;18.80;;
7821;SDS011;3956;50.558;9.678;2022-12-18T13:08:21;32.93;;;18.13;;
7821;SDS011;3956;50.558;9.678;2022-12-18T13:10:52;36.97;;;19.57;;
7821;SDS011;3956;50.558;9.678;2022-12-18T13:13:49;31.73;;;18.47;;
7821;SDS011;3956;50.558;9.678;2022-12-18T13:16:18;33.07;;;18.20;;
7821;SDS011;3956;50.558;9.678;2022-12-18T13:18:48;33.23;;;17.77;;
7821;SDS011;3956;50.558;9.678;2022-12-18T13:21:20;37.33;;;19.33;;
7821;SDS011;3956;50.558;9.678;2022-12-18T13:23:53;32.60;;;18.60;;
7821;SDS011;3956;50.558;9.678;2022-12-18T13:26:30;38.20;;;19.07;;
7821;SDS011;3956;50.558;9.678;2022-12-18T13:29:04;30.50;;;17.80;;
7821;SDS011;3956;50.558;9.678;2022-12-18T13:34:49;35.43;;;18.37;;
7821;SDS011;3956;50.558;9.678;2022-12-18T13:37:55;30.83;;;18.03;;
7821;SDS011;3956;50.558;9.678;2022-12-18T13:43:27;46.63;;;24.50;;
7821;SDS011;3956;50.558;9.678;2022-12-18T13:46:00;40.53;;;21.13;;
7821;SDS011;3956;50.558;9.678;2022-12-18T13:48:32;31.57;;;20.53;;
7821;SDS011;3956;50.558;9.678;2022-12-18T13:51:04;35.20;;;19.37;;
7821;SDS011;3956;50.558;9.678;2022-12-18T13:53:36;32.30;;;19.40;;
7821;SDS011;3956;50.558;9.678;2022-12-18T13:56:07;33.87;;;19.43;;
7821;SDS011;3956;50.558;9.678;2022-12-18T13:58:35;34.40;;;19.43;;
7821;SDS011;3956;50.558;9.678;2022-12-18T14:01:10;36.10;;;19.57;;
7821;SDS011;3956;50.558;9.678;2022-12-18T14:03:49;33.40;;;19.13;;
7821;SDS011;3956;50.558;9.678;2022-12-18T14:06:20;33.33;;;18.00;;
7821;SDS011;3956;50.558;9.678;2022-12-18T14:08:52;34.07;;;18.17;;
7821;SDS011;3956;50.558;9.678;2022-12-18T14:11:35;28.37;;;16.77;;
7821;SDS011;3956;50.558;9.678;2022-12-18T14:14:06;30.97;;;16.70;;
7821;SDS011;3956;50.558;9.678;2022-12-18T14:16:37;28.45;;;17.65;;
7821;SDS011;3956;50.558;9.678;2022-12-18T14:19:12;26.00;;;16.30;;
7821;SDS011;3956;50.558;9.678;2022-12-18T14:21:55;32.20;;;13.90;;
7821;SDS011;3956;50.558;9.678;2022-12-18T14:27:12;30.03;;;13.90;;
7821;SDS011;3956;50.558;9.678;2022-12-18T14:29:47;26.07;;;12.07;;
7821;SDS011;3956;50.558;9.678;2022-12-18T14:32:17;24.08;;;14.32;;
7821;SDS011;3956;50.558;9.678;2022-12-18T14:34:47;29.27;;;15.87;;
7821;SDS011;3956;50.558;9.678;2022-12-18T14:37:17;24.83;;;12.87;;
7821;SDS011;3956;50.558;9.678;2022-12-18T14:39:58;42.20;;;20.07;;
7821;SDS011;3956;50.558;9.678;2022-12-18T14:42:36;89.90;;;39.93;;
7821;SDS011;3956;50.558;9.678;2022-12-18T14:48:13;27.37;;;16.20;;
7821;SDS011;3956;50.558;9.678;2022-12-18T14:50:56;29.40;;;15.07;;
7821;SDS011;3956;50.558;9.678;2022-12-18T14:53:30;24.97;;;13.20;;
7821;SDS011;3956;50.558;9.678;2022-12-18T14:56:02;24.27;;;13.03;;
7821;SDS011;3956;50.558;9.678;2022-12-18T14:58:44;24.20;;;12.00;;
7821;SDS011;3956;50.558;9.678;2022-12-18T15:01:18;25.93;;;12.27;;
7821;SDS011;3956;50.558;9.678;2022-12-18T15:03:50;28.13;;;14.10;;
7821;SDS011;3956;50.558;9.678;2022-12-18T15:06:27;28.47;;;14.43;;
7821;SDS011;3956;50.558;9.678;2022-12-18T15:08:58;27.10;;;14.20;;
7821;SDS011;3956;50.558;9.678;2022-12-18T15:11:34;34.80;;;16.87;;
7821;SDS011;3956;50.558;9.678;2022-12-18T15:14:33;28.67;;;15.93;;
7821;SDS011;3956;50.558;9.678;2022-12-18T15:17:06;28.80;;;12.57;;
7821;SDS011;3956;50.558;9.678;2022-12-18T15:19:47;27.50;;;13.40;;
7821;SDS011;3956;50.558;9.678;2022-12-18T15:22:22;36.60;;;20.77;;
7821;SDS011;3956;50.558;9.678;2022-12-18T15:24:53;33.60;;;17.07;;
7821;SDS011;3956;50.558;9.678;2022-12-18T15:27:26;30.80;;;16.13;;
7821;SDS011;3956;50.558;9.678;2022-12-18T15:30:01;23.43;;;13.40;;
7821;SDS011;3956;50.558;9.678;2022-12-18T15:32:43;27.77;;;13.60;;
7821;SDS011;3956;50.558;9.678;2022-12-18T15:35:15;27.47;;;13.07;;
7821;SDS011;3956;50.558;9.678;2022-12-18T15:37:46;25.20;;;12.90;;